createdAt,value
2018-08-25T00:00:33.749Z,87.93
2018-08-25T00:03:02.447Z,87.96
2018-08-25T00:05:31.535Z,87.67
2018-08-25T00:08:00.220Z,87.85
2018-08-25T00:10:28.889Z,87.74
2018-08-25T00:12:57.881Z,87.64
2018-08-25T00:15:26.724Z,87.68
2018-08-25T00:17:55.524Z,87.91
2018-08-25T00:20:24.461Z,87.45
2018-08-25T00:22:53.269Z,88.08
2018-08-25T00:25:22.135Z,88.15
2018-08-25T00:27:50.841Z,87.81
2018-08-25T00:30:24.592Z,87.78
2018-08-25T00:32:53.553Z,88.02
2018-08-25T00:35:22.385Z,88.38
2018-08-25T00:37:51.054Z,88.16
2018-08-25T00:40:20.068Z,87.59
2018-08-25T00:42:49.063Z,87.71
2018-08-25T00:45:17.848Z,88.27
2018-08-25T00:47:46.830Z,88.56
2018-08-25T00:50:15.501Z,87.80
2018-08-25T00:52:44.432Z,87.78
2018-08-25T00:55:13.160Z,87.89
2018-08-25T00:57:42.332Z,87.92
2018-08-25T01:00:11.098Z,88.11
2018-08-25T01:02:40.064Z,88.33
2018-08-25T01:05:09.183Z,88.11
2018-08-25T01:07:38.125Z,88.17
2018-08-25T01:10:07.208Z,88.12
2018-08-25T01:12:36.119Z,88.45
2018-08-25T01:15:05.267Z,88.33
2018-08-25T01:17:33.918Z,88.64
2018-08-25T01:20:02.565Z,88.40
2018-08-25T01:22:31.357Z,88.66
2018-08-25T01:25:00.348Z,88.33
2018-08-25T01:27:29.281Z,88.53
2018-08-25T01:29:58.007Z,88.22
2018-08-25T01:32:26.953Z,88.62
2018-08-25T01:34:55.816Z,89.04
2018-08-25T01:37:24.579Z,88.60
2018-08-25T01:39:53.426Z,88.49
2018-08-25T01:42:22.216Z,88.37
2018-08-25T01:44:51.003Z,88.72
2018-08-25T01:47:19.926Z,88.64
2018-08-25T01:49:48.817Z,88.41
2018-08-25T01:52:17.655Z,88.89
2018-08-25T01:54:46.644Z,88.49
2018-08-25T01:57:15.808Z,88.45
2018-08-25T01:59:44.552Z,88.60
2018-08-25T02:02:13.216Z,88.46
2018-08-25T02:04:41.910Z,88.33
2018-08-25T02:07:10.637Z,88.55
2018-08-25T02:09:39.406Z,88.83
2018-08-25T02:12:08.231Z,88.52
2018-08-25T02:14:36.846Z,88.33
2018-08-25T02:17:05.924Z,88.39
2018-08-25T02:19:34.823Z,88.92
2018-08-25T02:22:03.639Z,88.57
2018-08-25T02:24:32.410Z,88.40
2018-08-25T02:27:01.417Z,88.53
2018-08-25T02:29:30.183Z,88.42
2018-08-25T02:31:58.976Z,88.83
2018-08-25T02:34:27.763Z,88.81
2018-08-25T02:36:56.895Z,88.54
2018-08-25T02:39:25.588Z,88.46
2018-08-25T02:41:54.320Z,88.68
2018-08-25T02:44:23.037Z,88.37
2018-08-25T02:46:51.856Z,88.96
2018-08-25T02:49:20.737Z,89.00
2018-08-25T02:51:49.671Z,89.16
2018-08-25T02:54:18.461Z,88.75
2018-08-25T02:56:47.533Z,88.46
2018-08-25T02:59:16.234Z,88.75
2018-08-25T03:01:45.199Z,88.72
2018-08-25T03:04:14.011Z,88.37
2018-08-25T03:06:42.896Z,88.14
2018-08-25T03:09:13.134Z,88.64
2018-08-25T03:11:41.967Z,88.67
2018-08-25T03:14:10.693Z,88.56
2018-08-25T03:16:39.624Z,88.97
2018-08-25T03:19:08.789Z,89.18
2018-08-25T03:21:37.910Z,89.50
2018-08-25T03:24:07.000Z,89.03
2018-08-25T03:26:36.054Z,88.67
2018-08-25T03:29:04.919Z,89.08
2018-08-25T03:31:33.590Z,89.13
2018-08-25T03:34:02.642Z,89.45
2018-08-25T03:36:31.415Z,89.44
2018-08-25T03:39:00.208Z,88.91
2018-08-25T03:41:28.830Z,89.34
2018-08-25T03:43:57.801Z,89.74
2018-08-25T03:46:26.778Z,89.06
2018-08-25T03:48:55.675Z,89.33
2018-08-25T03:51:24.385Z,89.82
2018-08-25T03:53:53.298Z,89.45
2018-08-25T03:56:22.145Z,89.95
2018-08-25T03:58:50.866Z,89.56
2018-08-25T04:01:19.680Z,90.10
2018-08-25T04:03:48.456Z,90.28
2018-08-25T04:06:17.099Z,90.01
2018-08-25T04:08:46.108Z,90.32
2018-08-25T04:11:15.068Z,90.70
2018-08-25T04:13:43.784Z,90.63
2018-08-25T04:16:13.116Z,90.61
2018-08-25T04:18:42.245Z,90.86
2018-08-25T04:21:11.085Z,90.68
2018-08-25T04:23:39.788Z,91.10
2018-08-25T04:26:08.638Z,90.70
2018-08-25T04:28:37.570Z,90.52
2018-08-25T04:31:06.808Z,90.29
2018-08-25T04:33:35.829Z,90.53
2018-08-25T04:36:04.765Z,90.62
2018-08-25T04:38:33.586Z,90.30
2018-08-25T04:41:02.324Z,90.60
2018-08-25T04:43:31.218Z,90.47
2018-08-25T04:46:00.034Z,90.32
2018-08-25T04:48:28.773Z,90.23
2018-08-25T04:50:57.503Z,90.09
2018-08-25T04:53:26.317Z,89.62
2018-08-25T04:55:55.399Z,89.42
2018-08-25T04:58:24.375Z,89.19
2018-08-25T05:00:53.123Z,89.21
2018-08-25T05:03:22.151Z,88.84
2018-08-25T05:05:51.137Z,88.42
2018-08-25T05:08:19.924Z,88.22
2018-08-25T05:10:49.035Z,87.98
2018-08-25T05:13:17.865Z,87.88
2018-08-25T05:15:46.897Z,87.28
2018-08-25T05:18:15.703Z,87.36
2018-08-25T05:20:44.785Z,86.89
2018-08-25T05:23:13.748Z,86.94
2018-08-25T05:25:42.466Z,86.82
2018-08-25T05:28:11.288Z,86.27
2018-08-25T05:30:40.152Z,85.95
2018-08-25T05:33:08.954Z,85.33
2018-08-25T05:35:37.767Z,81.78
2018-08-25T05:38:06.844Z,81.17
2018-08-25T05:40:35.713Z,82.39
2018-08-25T05:43:04.475Z,82.86
2018-08-25T05:45:33.563Z,83.27
2018-08-25T05:48:02.352Z,82.82
2018-08-25T05:50:31.087Z,83.09
2018-08-25T05:53:00.102Z,83.16
2018-08-25T05:55:29.121Z,83.01
2018-08-25T05:57:57.941Z,82.77
2018-08-25T06:00:26.841Z,83.33
2018-08-25T06:02:55.475Z,83.77
2018-08-25T06:05:24.147Z,83.42
2018-08-25T06:07:52.972Z,82.36
2018-08-25T06:10:21.942Z,81.00
2018-08-25T06:12:50.840Z,80.27
2018-08-25T06:15:19.563Z,79.44
2018-08-25T06:17:48.476Z,77.90
2018-08-25T06:20:17.210Z,77.96
2018-08-25T06:22:46.160Z,77.75
2018-08-25T06:25:14.774Z,78.75
2018-08-25T06:27:43.960Z,77.38
2018-08-25T06:30:12.998Z,77.22
2018-08-25T06:32:41.862Z,76.96
2018-08-25T06:35:10.993Z,76.75
2018-08-25T06:37:39.723Z,75.36
2018-08-25T06:40:08.491Z,74.05
2018-08-25T06:42:37.493Z,74.03
2018-08-25T06:45:06.845Z,74.11
2018-08-25T06:47:35.690Z,72.95
2018-08-25T06:50:04.581Z,69.69
2018-08-25T06:52:33.392Z,70.49
2018-08-25T06:55:02.174Z,67.41
2018-08-25T06:57:31.137Z,66.32
2018-08-25T07:00:00.088Z,64.39
2018-08-25T07:02:28.840Z,64.40
2018-08-25T07:04:57.739Z,60.96
2018-08-25T07:07:26.532Z,62.61
2018-08-25T07:09:55.349Z,57.94
2018-08-25T07:12:24.416Z,55.29
2018-08-25T07:14:53.226Z,56.08
2018-08-25T07:17:22.275Z,57.96
2018-08-25T07:19:51.196Z,52.45
2018-08-25T07:22:20.002Z,51.17
2018-08-25T07:24:48.809Z,47.77
2018-08-25T07:27:17.638Z,50.05
2018-08-25T07:29:46.445Z,49.03
2018-08-25T07:32:15.304Z,49.94
2018-08-25T07:34:44.009Z,51.05
2018-08-25T07:37:12.973Z,51.63
2018-08-25T07:39:41.727Z,51.76
2018-08-25T07:42:10.541Z,53.43
2018-08-25T07:44:39.631Z,54.20
2018-08-25T07:47:08.777Z,53.06
2018-08-25T07:49:37.749Z,53.92
2018-08-25T07:52:06.822Z,55.51
2018-08-25T07:54:35.527Z,55.00
2018-08-25T07:57:04.238Z,55.61
2018-08-25T07:59:33.156Z,53.74
2018-08-25T08:02:01.881Z,55.34
2018-08-25T08:04:30.563Z,54.53
2018-08-25T08:06:59.263Z,54.74
2018-08-25T08:09:27.940Z,56.07
2018-08-25T08:11:56.780Z,55.42
2018-08-25T08:14:25.412Z,54.34
2018-08-25T08:16:54.301Z,54.88
2018-08-25T08:19:23.053Z,55.34
2018-08-25T08:21:51.825Z,54.33
2018-08-25T08:24:20.503Z,54.82
2018-08-25T08:26:49.502Z,54.15
2018-08-25T08:29:18.322Z,53.94
2018-08-25T08:31:47.219Z,55.28
2018-08-25T08:34:16.044Z,55.18
2018-08-25T08:36:44.731Z,55.69
2018-08-25T08:39:13.569Z,55.40
2018-08-25T08:41:42.223Z,54.46
2018-08-25T08:44:11.301Z,53.17
2018-08-25T08:46:40.211Z,53.87
2018-08-25T08:49:09.985Z,52.50
2018-08-25T08:51:39.039Z,51.94
2018-08-25T08:54:07.694Z,52.18
2018-08-25T08:56:36.725Z,51.58
2018-08-25T08:59:05.355Z,52.28
2018-08-25T09:01:34.065Z,52.79
2018-08-25T09:04:02.906Z,51.45
2018-08-25T09:06:31.522Z,50.89
2018-08-25T09:09:00.201Z,51.35
2018-08-25T09:11:28.890Z,51.98
2018-08-25T09:13:57.773Z,51.51
2018-08-25T09:16:26.654Z,50.80
2018-08-25T09:18:55.626Z,50.60
2018-08-25T09:21:24.292Z,49.64
2018-08-25T09:23:53.141Z,47.65
2018-08-25T09:26:22.163Z,48.66
2018-08-25T09:28:51.352Z,48.92
2018-08-25T09:31:20.282Z,48.71
2018-08-25T09:33:49.409Z,48.44
2018-08-25T09:36:18.416Z,48.16
2018-08-25T09:38:47.012Z,49.89
2018-08-25T09:41:15.849Z,49.43
2018-08-25T09:43:44.842Z,48.57
2018-08-25T09:46:13.756Z,49.84
2018-08-25T09:48:42.484Z,49.47
2018-08-25T09:51:11.481Z,49.23
2018-08-25T09:53:40.110Z,50.36
2018-08-25T09:56:08.976Z,51.11
2018-08-25T09:58:37.896Z,52.21
2018-08-25T10:01:11.130Z,51.84
2018-08-25T10:03:39.755Z,52.13
2018-08-25T10:06:08.854Z,51.10
2018-08-25T10:08:37.462Z,51.46
2018-08-25T10:11:06.410Z,51.14
2018-08-25T10:13:35.039Z,51.91
2018-08-25T10:16:03.668Z,52.07
2018-08-25T10:18:32.735Z,49.90
2018-08-25T10:21:01.869Z,50.43
2018-08-25T10:23:30.685Z,51.85
2018-08-25T10:25:59.450Z,50.87
2018-08-25T10:28:28.340Z,51.04
2018-08-25T10:30:57.255Z,49.56
2018-08-25T10:33:26.437Z,49.95
2018-08-25T10:35:55.363Z,49.93
2018-08-25T10:38:24.246Z,49.80
2018-08-25T10:40:53.130Z,47.75
2018-08-25T10:43:21.958Z,46.64
2018-08-25T10:45:50.776Z,45.79
2018-08-25T10:48:19.518Z,46.07
2018-08-25T10:50:49.167Z,44.26
2018-08-25T10:53:18.214Z,44.77
2018-08-25T10:55:47.110Z,44.06
2018-08-25T10:58:15.850Z,43.75
2018-08-25T11:00:44.632Z,44.37
2018-08-25T11:03:13.676Z,44.66
2018-08-25T11:05:42.358Z,44.75
2018-08-25T11:08:11.346Z,43.64
2018-08-25T11:10:40.044Z,44.21
2018-08-25T11:13:08.760Z,43.43
2018-08-25T11:15:37.388Z,43.86
2018-08-25T11:18:06.238Z,44.60
2018-08-25T11:20:34.910Z,46.02
2018-08-25T11:23:03.942Z,47.00
2018-08-25T11:25:32.890Z,45.44
2018-08-25T11:28:01.800Z,44.48
2018-08-25T11:30:30.548Z,44.36
2018-08-25T11:32:59.478Z,43.54
2018-08-25T11:35:28.102Z,42.37
2018-08-25T11:37:56.811Z,40.47
2018-08-25T11:40:25.753Z,40.11
2018-08-25T11:42:54.424Z,39.50
2018-08-25T11:45:23.209Z,39.88
2018-08-25T11:47:51.869Z,41.34
2018-08-25T11:50:20.525Z,41.72
2018-08-25T11:52:49.742Z,42.98
2018-08-25T11:55:18.439Z,43.91
2018-08-25T11:57:47.134Z,45.20
2018-08-25T12:00:15.809Z,44.57
2018-08-25T12:02:44.532Z,46.03
2018-08-25T12:05:13.866Z,46.61
2018-08-25T12:07:42.740Z,46.28
2018-08-25T12:10:11.584Z,45.93
2018-08-25T12:12:40.530Z,45.45
2018-08-25T12:15:09.376Z,44.40
2018-08-25T12:17:38.550Z,42.08
2018-08-25T12:20:07.722Z,42.91
2018-08-25T12:22:36.949Z,43.23
2018-08-25T12:25:06.235Z,43.19
2018-08-25T12:27:35.255Z,41.94
2018-08-25T12:30:04.176Z,42.20
2018-08-25T12:32:33.001Z,42.98
2018-08-25T12:35:01.936Z,42.66
2018-08-25T12:37:30.561Z,43.18
2018-08-25T12:39:59.217Z,42.36
2018-08-25T12:42:27.976Z,41.99
2018-08-25T12:44:56.764Z,42.15
2018-08-25T12:47:26.950Z,42.21
2018-08-25T12:49:57.309Z,41.62
2018-08-25T12:52:26.065Z,39.51
2018-08-25T12:54:54.729Z,41.08
2018-08-25T12:57:23.545Z,40.39
2018-08-25T12:59:52.436Z,39.81
2018-08-25T13:02:21.233Z,39.18
2018-08-25T13:04:49.996Z,39.32
2018-08-25T13:07:19.335Z,38.55
2018-08-25T13:09:48.306Z,38.57
2018-08-25T13:12:17.312Z,39.93
2018-08-25T13:14:46.284Z,40.56
2018-08-25T13:17:15.459Z,41.15
2018-08-25T13:19:44.200Z,41.59
2018-08-25T13:22:12.972Z,43.07
2018-08-25T13:24:41.655Z,43.52
2018-08-25T13:27:10.260Z,43.95
2018-08-25T13:29:39.139Z,44.96
2018-08-25T13:32:07.941Z,45.33
2018-08-25T13:34:36.675Z,44.63
2018-08-25T13:37:05.316Z,43.97
2018-08-25T13:39:34.212Z,43.38
2018-08-25T13:42:03.136Z,43.29
2018-08-25T13:44:31.977Z,43.03
2018-08-25T13:47:00.878Z,43.51
2018-08-25T13:49:30.274Z,42.58
2018-08-25T13:51:58.989Z,42.95
2018-08-25T13:54:27.862Z,42.12
2018-08-25T13:56:56.546Z,41.38
2018-08-25T13:59:25.239Z,41.81
2018-08-25T14:01:53.908Z,41.34
2018-08-25T14:04:22.714Z,38.25
2018-08-25T14:06:51.858Z,36.48
2018-08-25T14:09:20.523Z,39.64
2018-08-25T14:11:49.301Z,41.47
2018-08-25T14:14:18.033Z,36.63
2018-08-25T14:16:46.829Z,40.04
2018-08-25T14:19:16.070Z,37.43
2018-08-25T14:21:44.810Z,35.56
2018-08-25T14:24:14.079Z,33.66
2018-08-25T14:26:43.153Z,34.16
2018-08-25T14:29:11.856Z,40.69
2018-08-25T14:31:40.736Z,43.29
2018-08-25T14:34:09.584Z,45.58
2018-08-25T14:36:38.377Z,46.39
2018-08-25T14:39:08.876Z,47.64
2018-08-25T14:41:37.788Z,48.23
2018-08-25T14:44:07.281Z,49.07
2018-08-25T14:46:37.370Z,49.46
2018-08-25T14:49:06.888Z,50.21
2018-08-25T14:51:36.125Z,54.87
2018-08-25T14:54:04.931Z,55.99
2018-08-25T14:56:33.963Z,58.56
2018-08-25T14:59:02.955Z,59.44
2018-08-25T15:01:31.905Z,59.99
2018-08-25T15:04:00.563Z,59.04
2018-08-25T15:06:29.217Z,59.22
2018-08-25T15:08:57.981Z,59.33
2018-08-25T15:11:26.709Z,60.88
2018-08-25T15:13:55.415Z,60.79
2018-08-25T15:16:24.397Z,62.67
2018-08-25T15:18:53.675Z,62.79
2018-08-25T15:21:22.332Z,63.39
2018-08-25T15:23:51.265Z,64.86
2018-08-25T15:26:20.348Z,66.48
2018-08-25T15:28:49.118Z,65.93
2018-08-25T15:31:18.133Z,66.54
2018-08-25T15:33:46.845Z,66.96
2018-08-25T15:36:15.739Z,66.95
2018-08-25T15:38:44.988Z,66.70
2018-08-25T15:41:13.880Z,67.88
2018-08-25T15:43:42.932Z,67.82
2018-08-25T15:46:11.804Z,67.47
2018-08-25T15:48:40.508Z,67.39
2018-08-25T15:51:09.326Z,68.49
2018-08-25T15:53:38.312Z,68.76
2018-08-25T15:56:07.090Z,66.19
2018-08-25T15:58:36.057Z,66.76
2018-08-25T16:01:05.240Z,67.11
2018-08-25T16:03:34.368Z,67.23
2018-08-25T16:06:03.256Z,67.95
2018-08-25T16:08:32.304Z,68.38
2018-08-25T16:11:00.933Z,69.45
2018-08-25T16:13:29.716Z,69.92
2018-08-25T16:15:58.489Z,69.28
2018-08-25T16:18:27.440Z,69.81
2018-08-25T16:20:56.117Z,70.13
2018-08-25T16:23:25.115Z,71.31
2018-08-25T16:25:54.517Z,71.87
2018-08-25T16:28:23.560Z,72.01
2018-08-25T16:30:52.789Z,72.48
2018-08-25T16:33:21.949Z,74.15
2018-08-25T16:35:50.794Z,74.02
2018-08-25T16:38:19.670Z,74.04
2018-08-25T16:40:48.387Z,75.28
2018-08-25T16:43:17.457Z,74.64
2018-08-25T16:45:46.447Z,74.21
2018-08-25T16:48:15.448Z,73.93
2018-08-25T16:50:44.233Z,74.92
2018-08-25T16:53:12.971Z,74.39
2018-08-25T16:55:42.027Z,74.08
2018-08-25T16:58:10.964Z,74.14
2018-08-25T17:00:39.848Z,73.72
2018-08-25T17:03:08.469Z,73.19
2018-08-25T17:05:37.188Z,73.30
2018-08-25T17:08:05.924Z,72.85
2018-08-25T17:10:35.343Z,72.67
2018-08-25T17:13:04.182Z,73.04
2018-08-25T17:15:32.925Z,72.24
2018-08-25T17:18:01.900Z,73.12
2018-08-25T17:20:30.602Z,73.12
2018-08-25T17:22:59.626Z,73.71
2018-08-25T17:25:28.555Z,73.30
2018-08-25T17:27:57.819Z,74.45
2018-08-25T17:30:26.533Z,74.85
2018-08-25T17:32:55.205Z,75.07
2018-08-25T17:35:24.206Z,75.15
2018-08-25T17:37:53.134Z,75.44
2018-08-25T17:40:21.921Z,75.19
2018-08-25T17:42:50.799Z,75.27
2018-08-25T17:45:19.732Z,76.08
2018-08-25T17:47:48.389Z,76.46
2018-08-25T17:50:17.215Z,75.96
2018-08-25T17:52:46.016Z,76.98
2018-08-25T17:55:15.228Z,76.30
2018-08-25T17:57:44.246Z,76.36
2018-08-25T18:00:14.486Z,76.54
2018-08-25T18:02:43.413Z,76.19
2018-08-25T18:05:12.939Z,76.00
2018-08-25T18:07:42.216Z,75.90
2018-08-25T18:10:11.065Z,76.19
2018-08-25T18:12:39.896Z,75.63
2018-08-25T18:15:08.972Z,76.01
2018-08-25T18:17:37.807Z,75.90
2018-08-25T18:20:06.590Z,76.43
2018-08-25T18:22:35.307Z,76.59
2018-08-25T18:25:04.119Z,76.23
2018-08-25T18:27:33.182Z,76.12
2018-08-25T18:30:01.968Z,76.01
2018-08-25T18:32:30.792Z,76.19
2018-08-25T18:34:59.667Z,76.69
2018-08-25T18:37:28.585Z,76.46
2018-08-25T18:39:57.433Z,76.37
2018-08-25T18:42:26.128Z,76.96
2018-08-25T18:44:55.233Z,77.32
2018-08-25T18:47:24.125Z,77.44
2018-08-25T18:49:53.047Z,77.29
2018-08-25T18:52:21.798Z,76.75
2018-08-25T18:54:50.944Z,77.42
2018-08-25T18:57:20.461Z,76.64
2018-08-25T18:59:49.501Z,77.00
2018-08-25T19:02:18.542Z,77.23
2018-08-25T19:04:47.259Z,78.27
2018-08-25T19:07:16.090Z,77.49
2018-08-25T19:09:44.705Z,77.40
2018-08-25T19:12:13.719Z,77.37
2018-08-25T19:14:42.609Z,77.62
2018-08-25T19:17:11.311Z,78.31
2018-08-25T19:19:40.268Z,78.19
2018-08-25T19:22:09.095Z,77.79
2018-08-25T19:24:37.762Z,78.15
2018-08-25T19:27:06.403Z,77.91
2018-08-25T19:29:35.405Z,77.88
2018-08-25T19:32:04.320Z,77.85
2018-08-25T19:34:33.204Z,77.81
2018-08-25T19:37:02.519Z,77.85
2018-08-25T19:39:31.400Z,78.20
2018-08-25T19:42:00.280Z,78.33
2018-08-25T19:44:29.266Z,78.42
2018-08-25T19:46:58.319Z,78.42
2018-08-25T19:50:30.076Z,78.52
2018-08-25T19:52:58.867Z,78.62
2018-08-25T19:55:27.856Z,78.41
2018-08-25T19:57:57.002Z,78.30
2018-08-25T20:00:26.490Z,78.46
2018-08-25T20:02:55.676Z,78.43
2018-08-25T20:05:24.554Z,78.34
2018-08-25T20:07:53.526Z,78.87
2018-08-25T20:10:22.126Z,78.93
2018-08-25T20:12:51.068Z,78.93
2018-08-25T20:15:20.084Z,79.25
2018-08-25T20:17:50.690Z,79.00
2018-08-25T20:20:19.571Z,79.19
2018-08-25T20:22:48.573Z,79.12
2018-08-25T20:25:17.471Z,79.00
2018-08-25T20:27:46.806Z,79.01
2018-08-25T20:30:15.604Z,79.43
2018-08-25T20:32:44.513Z,79.24
2018-08-25T20:35:13.364Z,79.20
2018-08-25T20:37:42.180Z,79.79
2018-08-25T20:40:10.968Z,79.74
2018-08-25T20:42:39.743Z,79.69
2018-08-25T20:45:08.992Z,79.58
2018-08-25T20:47:37.721Z,80.01
2018-08-25T20:50:08.721Z,79.99
2018-08-25T20:52:38.528Z,80.22
2018-08-25T20:55:07.299Z,80.14
2018-08-25T20:57:36.576Z,80.72
2018-08-25T21:00:06.147Z,80.11
2018-08-25T21:02:35.304Z,80.07
2018-08-25T21:05:05.217Z,80.27
2018-08-25T21:07:34.172Z,80.19
2018-08-25T21:10:03.156Z,80.84
2018-08-25T21:12:31.864Z,80.58
2018-08-25T21:15:00.888Z,80.83
2018-08-25T21:17:30.062Z,80.47
2018-08-25T21:19:58.735Z,80.35
2018-08-25T21:22:27.451Z,80.81
2018-08-25T21:24:56.407Z,80.56
2018-08-25T21:27:25.285Z,80.50
2018-08-25T21:29:54.046Z,80.30
2018-08-25T21:32:23.399Z,80.29
2018-08-25T21:34:52.255Z,80.61
2018-08-25T21:37:21.513Z,80.47
2018-08-25T21:39:50.285Z,80.84
2018-08-25T21:42:18.966Z,80.47
2018-08-25T21:44:47.755Z,80.69
2018-08-25T21:47:16.548Z,80.65
2018-08-25T21:49:45.796Z,80.64
2018-08-25T21:52:14.849Z,80.95
2018-08-25T21:54:43.686Z,80.91
2018-08-25T21:57:12.479Z,80.32
2018-08-25T21:59:41.363Z,80.48
2018-08-25T22:02:14.153Z,80.62
2018-08-25T22:04:42.948Z,80.55
2018-08-25T22:07:11.832Z,80.37
2018-08-25T22:09:40.776Z,80.45
2018-08-25T22:12:10.183Z,80.55
2018-08-25T22:14:39.032Z,80.42
2018-08-25T22:17:08.591Z,80.76
2018-08-25T22:19:37.586Z,80.63
2018-08-25T22:22:07.731Z,80.52
2018-08-25T22:24:36.606Z,80.38
2018-08-25T22:27:05.743Z,80.74
2018-08-25T22:29:34.424Z,80.72
2018-08-25T22:32:03.573Z,80.74
2018-08-25T22:34:32.154Z,80.56
2018-08-25T22:37:00.829Z,81.27
2018-08-25T22:39:29.582Z,80.89
2018-08-25T22:41:58.423Z,81.07
2018-08-25T22:44:27.203Z,80.84
2018-08-25T22:46:56.058Z,80.84
2018-08-25T22:49:24.826Z,81.03
2018-08-25T22:51:53.617Z,80.97
2018-08-25T22:54:22.337Z,80.46
2018-08-25T22:56:51.164Z,80.58
2018-08-25T22:59:20.015Z,80.54
2018-08-25T23:01:48.707Z,80.68
2018-08-25T23:04:17.285Z,81.23
2018-08-25T23:06:46.013Z,81.44
2018-08-25T23:09:14.865Z,81.27
2018-08-25T23:11:43.504Z,81.48
2018-08-25T23:14:12.188Z,81.11
2018-08-25T23:16:41.913Z,81.01
2018-08-25T23:19:10.683Z,81.01
2018-08-25T23:21:39.343Z,80.89
2018-08-25T23:24:07.963Z,80.51
2018-08-25T23:26:36.793Z,80.69
2018-08-25T23:29:05.726Z,80.60
2018-08-25T23:31:34.567Z,80.78
2018-08-25T23:34:03.651Z,80.68
2018-08-25T23:36:32.418Z,80.75
2018-08-25T23:39:01.194Z,81.04
2018-08-25T23:41:30.091Z,80.82
2018-08-25T23:43:58.928Z,80.93
2018-08-25T23:46:27.705Z,80.57
2018-08-25T23:48:56.834Z,80.50
2018-08-25T23:51:25.690Z,80.55
2018-08-25T23:53:54.470Z,80.74
2018-08-25T23:56:23.463Z,80.77
2018-08-25T23:58:52.323Z,80.48
